sensor_id;sensor_type;location;lat;lon;timestamp;pressure;altitude;pressure_sealevel;temperature;humidity
73453;BME280;61687;56.232;43.854;2022-08-19T00:01:31;101744.56;;;19.25;56.50
73453;BME280;61687;56.232;43.854;2022-08-19T00:03:59;101747.34;;;19.21;56.70
73453;BME280;61687;56.232;43.854;2022-08-19T00:06:28;101752.13;;;19.21;56.62
73453;BME280;61687;56.232;43.854;2022-08-19T00:08:55;101750.91;;;19.18;56.71
73453;BME280;61687;56.232;43.854;2022-08-19T00:11:21;101761.59;;;19.12;56.62
73453;BME280;61687;56.232;43.854;2022-08-19T00:13:47;101763.97;;;19.10;56.59
73453;BME280;61687;56.232;43.854;2022-08-19T00:16:16;101769.09;;;19.05;56.44
73453;BME280;61687;56.232;43.854;2022-08-19T00:18:44;101769.09;;;19.01;56.60
73453;BME280;61687;56.232;43.854;2022-08-19T00:21:11;101767.47;;;18.96;56.89
73453;BME280;61687;56.232;43.854;2022-08-19T00:23:37;101769.03;;;18.94;56.55
73453;BME280;61687;56.232;43.854;2022-08-19T00:26:04;101778.16;;;18.91;56.83
73453;BME280;61687;56.232;43.854;2022-08-19T00:28:30;101783.66;;;18.87;56.69
73453;BME280;61687;56.232;43.854;2022-08-19T00:30:57;101787.22;;;18.84;56.94
73453;BME280;61687;56.232;43.854;2022-08-19T00:33:23;101784.06;;;18.82;56.91
73453;BME280;61687;56.232;43.854;2022-08-19T00:35:49;101783.25;;;18.78;56.82
73453;BME280;61687;56.232;43.854;2022-08-19T00:38:15;101788.75;;;18.74;56.99
73453;BME280;61687;56.232;43.854;2022-08-19T00:40:44;101783.59;;;18.69;56.71
73453;BME280;61687;56.232;43.854;2022-08-19T00:43:13;101796.66;;;18.65;57.02
73453;BME280;61687;56.232;43.854;2022-08-19T00:45:39;101797.44;;;18.62;56.98
73453;BME280;61687;56.232;43.854;2022-08-19T00:48:08;101802.94;;;18.58;57.34
73453;BME280;61687;56.232;43.854;2022-08-19T00:50:34;101798.97;;;18.55;57.27
73453;BME280;61687;56.232;43.854;2022-08-19T00:53:01;101802.09;;;18.50;57.32
73453;BME280;61687;56.232;43.854;2022-08-19T00:55:31;101802.88;;;18.47;57.37
73453;BME280;61687;56.232;43.854;2022-08-19T00:58:04;101799.66;;;18.41;57.43
73453;BME280;61687;56.232;43.854;2022-08-19T01:00:33;101800.84;;;18.37;57.59
73453;BME280;61687;56.232;43.854;2022-08-19T01:03:11;101801.97;;;18.32;57.48
73453;BME280;61687;56.232;43.854;2022-08-19T01:05:39;101803.13;;;18.27;57.79
73453;BME280;61687;56.232;43.854;2022-08-19T01:08:07;101809.44;;;18.24;57.92
73453;BME280;61687;56.232;43.854;2022-08-19T01:10:53;101812.59;;;18.19;58.00
73453;BME280;61687;56.232;43.854;2022-08-19T01:13:23;101810.97;;;18.14;58.18
73453;BME280;61687;56.232;43.854;2022-08-19T01:15:53;101817.66;;;18.10;57.98
73453;BME280;61687;56.232;43.854;2022-08-19T01:18:21;101816.81;;;18.06;57.90
73453;BME280;61687;56.232;43.854;2022-08-19T01:20:47;101810.06;;;18.03;57.85
73453;BME280;61687;56.232;43.854;2022-08-19T01:23:14;101810.44;;;18.01;57.83
73453;BME280;61687;56.232;43.854;2022-08-19T01:25:49;101812.78;;;17.99;57.69
73453;BME280;61687;56.232;43.854;2022-08-19T01:28:19;101815.56;;;17.99;57.91
73453;BME280;61687;56.232;43.854;2022-08-19T01:30:46;101812.75;;;17.96;57.86
73453;BME280;61687;56.232;43.854;2022-08-19T01:33:13;101816.28;;;17.93;57.86
73453;BME280;61687;56.232;43.854;2022-08-19T01:35:40;101808.31;;;17.91;57.54
73453;BME280;61687;56.232;43.854;2022-08-19T01:38:09;101813.47;;;17.89;57.59
73453;BME280;61687;56.232;43.854;2022-08-19T01:40:39;101824.56;;;17.89;57.55
73453;BME280;61687;56.232;43.854;2022-08-19T01:43:05;101824.94;;;17.87;57.60
73453;BME280;61687;56.232;43.854;2022-08-19T01:45:33;101824.50;;;17.82;57.68
73453;BME280;61687;56.232;43.854;2022-08-19T01:48:00;101822.47;;;17.79;57.84
73453;BME280;61687;56.232;43.854;2022-08-19T01:50:26;101817.31;;;17.77;57.54
73453;BME280;61687;56.232;43.854;2022-08-19T01:52:53;101820.47;;;17.76;57.50
73453;BME280;61687;56.232;43.854;2022-08-19T01:55:21;101829.97;;;17.74;57.49
73453;BME280;61687;56.232;43.854;2022-08-19T01:57:52;101837.88;;;17.72;57.65
73453;BME280;61687;56.232;43.854;2022-08-19T02:00:23;101838.63;;;17.69;57.37
73453;BME280;61687;56.232;43.854;2022-08-19T02:02:49;101842.19;;;17.70;57.35
73453;BME280;61687;56.232;43.854;2022-08-19T02:05:15;101841.78;;;17.71;57.12
73453;BME280;61687;56.232;43.854;2022-08-19T02:07:44;101836.25;;;17.71;57.65
73453;BME280;61687;56.232;43.854;2022-08-19T02:10:18;101835.88;;;17.73;57.22
73453;BME280;61687;56.232;43.854;2022-08-19T02:12:44;101848.97;;;17.72;57.27
73453;BME280;61687;56.232;43.854;2022-08-19T02:15:11;101851.28;;;17.70;57.33
73453;BME280;61687;56.232;43.854;2022-08-19T02:17:37;101845.75;;;17.70;57.21
73453;BME280;61687;56.232;43.854;2022-08-19T02:20:04;101842.97;;;17.70;57.17
73453;BME280;61687;56.232;43.854;2022-08-19T02:22:31;101845.75;;;17.70;57.29
73453;BME280;61687;56.232;43.854;2022-08-19T02:24:58;101849.69;;;17.69;57.34
73453;BME280;61687;56.232;43.854;2022-08-19T02:27:24;101841.78;;;17.68;57.31
73453;BME280;61687;56.232;43.854;2022-08-19T02:29:52;101843.31;;;17.65;57.14
73453;BME280;61687;56.232;43.854;2022-08-19T02:32:18;101845.31;;;17.65;56.95
73453;BME280;61687;56.232;43.854;2022-08-19T02:34:46;101857.59;;;17.64;56.95
73453;BME280;61687;56.232;43.854;2022-08-19T02:37:13;101849.63;;;17.62;57.32
73453;BME280;61687;56.232;43.854;2022-08-19T02:39:58;101863.91;;;17.64;57.48
73453;BME280;61687;56.232;43.854;2022-08-19T02:42:24;101869.44;;;17.64;57.22
73453;BME280;61687;56.232;43.854;2022-08-19T02:44:51;101865.09;;;17.63;57.53
73453;BME280;61687;56.232;43.854;2022-08-19T02:47:18;101861.91;;;17.61;57.73
73453;BME280;61687;56.232;43.854;2022-08-19T02:49:45;101869.41;;;17.60;57.77
73453;BME280;61687;56.232;43.854;2022-08-19T02:52:11;101867.44;;;17.61;57.30
73453;BME280;61687;56.232;43.854;2022-08-19T02:54:38;101876.59;;;17.65;57.02
73453;BME280;61687;56.232;43.854;2022-08-19T02:57:04;101882.97;;;17.69;57.38
73453;BME280;61687;56.232;43.854;2022-08-19T02:59:32;101886.16;;;17.71;57.05
73453;BME280;61687;56.232;43.854;2022-08-19T03:01:58;101885.44;;;17.74;56.84
73453;BME280;61687;56.232;43.854;2022-08-19T03:04:24;101885.03;;;17.76;57.07
73453;BME280;61687;56.232;43.854;2022-08-19T03:06:51;101885.44;;;17.78;56.92
73453;BME280;61687;56.232;43.854;2022-08-19T03:09:18;101896.59;;;17.82;56.60
73453;BME280;61687;56.232;43.854;2022-08-19T03:11:45;101893.81;;;17.82;56.77
73453;BME280;61687;56.232;43.854;2022-08-19T03:14:12;101894.59;;;17.82;56.95
73453;BME280;61687;56.232;43.854;2022-08-19T03:16:44;101904.53;;;17.83;56.97
73453;BME280;61687;56.232;43.854;2022-08-19T03:19:11;101897.41;;;17.86;57.37
73453;BME280;61687;56.232;43.854;2022-08-19T03:21:37;101902.22;;;17.89;57.01
73453;BME280;61687;56.232;43.854;2022-08-19T03:24:08;101895.53;;;17.94;57.09
73453;BME280;61687;56.232;43.854;2022-08-19T03:26:37;101907.03;;;17.96;56.94
73453;BME280;61687;56.232;43.854;2022-08-19T03:29:04;101912.63;;;17.99;57.00
73453;BME280;61687;56.232;43.854;2022-08-19T03:31:30;101912.69;;;18.03;56.52
73453;BME280;61687;56.232;43.854;2022-08-19T03:33:56;101922.28;;;18.09;56.46
73453;BME280;61687;56.232;43.854;2022-08-19T03:36:25;101919.13;;;18.11;56.44
73453;BME280;61687;56.232;43.854;2022-08-19T03:38:54;101916.75;;;18.09;57.07
73453;BME280;61687;56.232;43.854;2022-08-19T03:41:25;101920.72;;;18.12;57.08
73453;BME280;61687;56.232;43.854;2022-08-19T03:43:52;101925.53;;;18.15;56.75
73453;BME280;61687;56.232;43.854;2022-08-19T03:46:22;101920.00;;;18.19;56.92
73453;BME280;61687;56.232;43.854;2022-08-19T03:48:50;101932.72;;;18.23;56.70
73453;BME280;61687;56.232;43.854;2022-08-19T03:51:29;101924.81;;;18.25;56.48
73453;BME280;61687;56.232;43.854;2022-08-19T03:53:58;101931.97;;;18.26;56.21
73453;BME280;61687;56.232;43.854;2022-08-19T03:56:25;101928.84;;;18.31;56.19
73453;BME280;61687;56.232;43.854;2022-08-19T03:58:52;101924.09;;;18.32;56.10
73453;BME280;61687;56.232;43.854;2022-08-19T04:01:20;101928.88;;;18.35;55.89
73453;BME280;61687;56.232;43.854;2022-08-19T04:03:47;101936.06;;;18.40;55.91
73453;BME280;61687;56.232;43.854;2022-08-19T04:06:16;101934.13;;;18.44;56.16
73453;BME280;61687;56.232;43.854;2022-08-19T04:08:44;101937.31;;;18.46;56.32
73453;BME280;61687;56.232;43.854;2022-08-19T04:11:17;101941.69;;;18.47;56.35
73453;BME280;61687;56.232;43.854;2022-08-19T04:13:43;101941.31;;;18.49;56.37
73453;BME280;61687;56.232;43.854;2022-08-19T04:16:10;101941.31;;;18.49;56.02
73453;BME280;61687;56.232;43.854;2022-08-19T04:18:38;101950.47;;;18.53;55.96
73453;BME280;61687;56.232;43.854;2022-08-19T04:21:05;101958.38;;;18.54;56.03
73453;BME280;61687;56.232;43.854;2022-08-19T04:23:33;101962.03;;;18.58;55.63
73453;BME280;61687;56.232;43.854;2022-08-19T04:25:59;101968.75;;;18.57;55.48
73453;BME280;61687;56.232;43.854;2022-08-19T04:28:25;101977.88;;;18.58;55.78
73453;BME280;61687;56.232;43.854;2022-08-19T04:30:53;101974.31;;;18.57;55.72
73453;BME280;61687;56.232;43.854;2022-08-19T04:33:22;101980.69;;;18.62;55.87
73453;BME280;61687;56.232;43.854;2022-08-19T04:35:51;101974.75;;;18.63;55.78
73453;BME280;61687;56.232;43.854;2022-08-19T04:38:20;101970.78;;;18.64;56.03
73453;BME280;61687;56.232;43.854;2022-08-19T04:40:50;101972.00;;;18.67;55.93
73453;BME280;61687;56.232;43.854;2022-08-19T04:43:37;101982.78;;;18.76;55.71
73453;BME280;61687;56.232;43.854;2022-08-19T04:46:10;101974.50;;;18.79;55.37
73453;BME280;61687;56.232;43.854;2022-08-19T04:48:38;101975.31;;;18.83;55.47
73453;BME280;61687;56.232;43.854;2022-08-19T04:51:10;101984.06;;;18.85;55.21
73453;BME280;61687;56.232;43.854;2022-08-19T04:53:38;101984.88;;;18.90;54.84
73453;BME280;61687;56.232;43.854;2022-08-19T04:56:10;101984.94;;;18.93;54.99
73453;BME280;61687;56.232;43.854;2022-08-19T04:58:38;101984.59;;;18.98;54.90
73453;BME280;61687;56.232;43.854;2022-08-19T05:01:04;101982.97;;;18.97;55.21
73453;BME280;61687;56.232;43.854;2022-08-19T05:03:30;101975.41;;;18.98;55.00
73453;BME280;61687;56.232;43.854;2022-08-19T05:06:10;101979.84;;;19.02;54.77
73453;BME280;61687;56.232;43.854;2022-08-19T05:08:38;101975.16;;;19.10;54.00
73453;BME280;61687;56.232;43.854;2022-08-19T05:11:24;101981.16;;;19.16;54.30
73453;BME280;61687;56.232;43.854;2022-08-19T05:13:51;101980.81;;;19.25;54.30
73453;BME280;61687;56.232;43.854;2022-08-19T05:16:19;101979.69;;;19.33;53.80
73453;BME280;61687;56.232;43.854;2022-08-19T05:18:46;101981.28;;;19.38;53.35
73453;BME280;61687;56.232;43.854;2022-08-19T05:21:31;101990.06;;;19.43;53.32
73453;BME280;61687;56.232;43.854;2022-08-19T05:24:16;101989.28;;;19.47;52.91
73453;BME280;61687;56.232;43.854;2022-08-19T05:26:44;101988.50;;;19.50;52.96
73453;BME280;61687;56.232;43.854;2022-08-19T05:29:18;101992.47;;;19.52;52.87
73453;BME280;61687;56.232;43.854;2022-08-19T05:31:46;101983.78;;;19.57;52.84
73453;BME280;61687;56.232;43.854;2022-08-19T05:34:16;101984.22;;;19.63;52.67
73453;BME280;61687;56.232;43.854;2022-08-19T05:36:43;101985.03;;;19.67;53.03
73453;BME280;61687;56.232;43.854;2022-08-19T05:41:46;102000.59;;;19.79;52.24
73453;BME280;61687;56.232;43.854;2022-08-19T05:44:13;102001.41;;;19.83;52.65
73453;BME280;61687;56.232;43.854;2022-08-19T05:46:42;101999.44;;;19.87;53.06
73453;BME280;61687;56.232;43.854;2022-08-19T05:49:08;102005.81;;;19.92;52.61
73453;BME280;61687;56.232;43.854;2022-08-19T05:51:36;102011.41;;;19.95;52.71
73453;BME280;61687;56.232;43.854;2022-08-19T05:54:03;102002.31;;;20.02;52.26
73453;BME280;61687;56.232;43.854;2022-08-19T05:56:30;102010.28;;;20.11;52.36
73453;BME280;61687;56.232;43.854;2022-08-19T05:58:57;102013.50;;;20.20;52.11
73453;BME280;61687;56.232;43.854;2022-08-19T06:01:25;102023.03;;;20.26;51.90
73453;BME280;61687;56.232;43.854;2022-08-19T06:03:52;102021.09;;;20.30;51.57
73453;BME280;61687;56.232;43.854;2022-08-19T06:06:19;102019.50;;;20.37;50.91
73453;BME280;61687;56.232;43.854;2022-08-19T06:08:45;102025.47;;;20.46;51.12
73453;BME280;61687;56.232;43.854;2022-08-19T06:11:23;102035.84;;;20.53;50.74
73453;BME280;61687;56.232;43.854;2022-08-19T06:13:52;102023.53;;;20.61;50.18
73453;BME280;61687;56.232;43.854;2022-08-19T06:16:21;102036.69;;;20.71;50.09
73453;BME280;61687;56.232;43.854;2022-08-19T06:18:54;102039.09;;;20.80;49.55
73453;BME280;61687;56.232;43.854;2022-08-19T06:21:24;102041.50;;;20.89;49.27
73453;BME280;61687;56.232;43.854;2022-08-19T06:23:51;102026.38;;;20.97;49.10
73453;BME280;61687;56.232;43.854;2022-08-19T06:26:19;102033.56;;;21.06;49.23
73453;BME280;61687;56.232;43.854;2022-08-19T06:28:46;102041.91;;;21.13;49.38
73453;BME280;61687;56.232;43.854;2022-08-19T06:31:17;102027.56;;;21.25;48.83
73453;BME280;61687;56.232;43.854;2022-08-19T06:33:44;102035.13;;;21.36;48.47
73453;BME280;61687;56.232;43.854;2022-08-19T06:36:49;102031.13;;;21.40;48.30
73453;BME280;61687;56.232;43.854;2022-08-19T06:39:21;102039.88;;;21.50;48.13
73453;BME280;61687;56.232;43.854;2022-08-19T06:41:50;102033.47;;;21.53;47.37
73453;BME280;61687;56.232;43.854;2022-08-19T06:44:18;102024.34;;;21.56;47.48
73453;BME280;61687;56.232;43.854;2022-08-19T06:46:44;102033.88;;;21.62;47.27
73453;BME280;61687;56.232;43.854;2022-08-19T06:49:11;102038.28;;;21.67;46.72
73453;BME280;61687;56.232;43.854;2022-08-19T06:51:41;102037.88;;;21.68;46.57
73453;BME280;61687;56.232;43.854;2022-08-19T06:54:08;102039.06;;;21.71;46.98
73453;BME280;61687;56.232;43.854;2022-08-19T06:56:34;102043.84;;;21.70;46.53
73453;BME280;61687;56.232;43.854;2022-08-19T06:59:02;102039.84;;;21.71;46.67
73453;BME280;61687;56.232;43.854;2022-08-19T07:01:29;102039.44;;;21.77;46.56
73453;BME280;61687;56.232;43.854;2022-08-19T07:03:55;102039.03;;;21.82;46.93
73453;BME280;61687;56.232;43.854;2022-08-19T07:06:21;102044.19;;;21.91;46.82
73453;BME280;61687;56.232;43.854;2022-08-19T07:08:47;102042.16;;;21.98;45.60
73453;BME280;61687;56.232;43.854;2022-08-19T07:11:16;102043.72;;;22.07;45.58
73453;BME280;61687;56.232;43.854;2022-08-19T07:13:46;102048.06;;;22.15;45.64
73453;BME280;61687;56.232;43.854;2022-08-19T07:16:15;102046.84;;;22.23;45.16
73453;BME280;61687;56.232;43.854;2022-08-19T07:18:42;102048.38;;;22.32;44.07
73453;BME280;61687;56.232;43.854;2022-08-19T07:21:10;102041.97;;;22.35;44.26
73453;BME280;61687;56.232;43.854;2022-08-19T07:23:37;102043.94;;;22.41;44.16
73453;BME280;61687;56.232;43.854;2022-08-19T07:26:08;102045.53;;;22.50;43.80
73453;BME280;61687;56.232;43.854;2022-08-19T07:28:35;102041.88;;;22.56;44.23
73453;BME280;61687;56.232;43.854;2022-08-19T07:31:06;102035.84;;;22.65;43.65
73453;BME280;61687;56.232;43.854;2022-08-19T07:33:33;102042.56;;;22.75;42.49
73453;BME280;61687;56.232;43.854;2022-08-19T07:36:06;102042.53;;;22.82;42.14
73453;BME280;61687;56.232;43.854;2022-08-19T07:38:33;102044.06;;;22.87;40.93
73453;BME280;61687;56.232;43.854;2022-08-19T07:41:00;102049.25;;;22.92;40.85
73453;BME280;61687;56.232;43.854;2022-08-19T07:43:27;102053.56;;;22.97;40.53
73453;BME280;61687;56.232;43.854;2022-08-19T07:45:54;102050.75;;;23.04;40.25
73453;BME280;61687;56.232;43.854;2022-08-19T07:48:24;102050.31;;;23.06;40.31
73453;BME280;61687;56.232;43.854;2022-08-19T07:50:54;102040.25;;;23.12;40.00
73453;BME280;61687;56.232;43.854;2022-08-19T07:53:24;102053.81;;;23.17;40.24
73453;BME280;61687;56.232;43.854;2022-08-19T07:55:51;102054.16;;;23.23;39.92
73453;BME280;61687;56.232;43.854;2022-08-19T07:58:19;102056.16;;;23.26;39.90
73453;BME280;61687;56.232;43.854;2022-08-19T08:00:48;102058.16;;;23.25;39.48
73453;BME280;61687;56.232;43.854;2022-08-19T08:03:18;102062.53;;;23.30;39.88
73453;BME280;61687;56.232;43.854;2022-08-19T08:05:45;102066.88;;;23.35;39.92
73453;BME280;61687;56.232;43.854;2022-08-19T08:08:29;102069.22;;;23.40;39.26
73453;BME280;61687;56.232;43.854;2022-08-19T08:11:11;102067.59;;;23.42;38.34
73453;BME280;61687;56.232;43.854;2022-08-19T08:13:38;102071.59;;;23.41;38.30
73453;BME280;61687;56.232;43.854;2022-08-19T08:16:06;102062.00;;;23.42;37.39
73453;BME280;61687;56.232;43.854;2022-08-19T08:18:33;102069.16;;;23.47;37.24
73453;BME280;61687;56.232;43.854;2022-08-19T08:20:59;102061.94;;;23.50;37.84
73453;BME280;61687;56.232;43.854;2022-08-19T08:23:26;102061.50;;;23.51;37.43
73453;BME280;61687;56.232;43.854;2022-08-19T08:25:54;102055.88;;;23.55;36.99
73453;BME280;61687;56.232;43.854;2022-08-19T08:28:20;102063.44;;;23.58;37.50
73453;BME280;61687;56.232;43.854;2022-08-19T08:30:48;102066.16;;;23.65;38.42
73453;BME280;61687;56.232;43.854;2022-08-19T08:33:19;102057.31;;;23.70;38.14
73453;BME280;61687;56.232;43.854;2022-08-19T08:35:45;102057.25;;;23.74;37.77
73453;BME280;61687;56.232;43.854;2022-08-19T08:38:11;102066.44;;;23.78;37.46
73453;BME280;61687;56.232;43.854;2022-08-19T08:40:44;102060.41;;;23.80;36.82
73453;BME280;61687;56.232;43.854;2022-08-19T08:43:33;102058.78;;;23.82;36.85
73453;BME280;61687;56.232;43.854;2022-08-19T08:46:12;102066.72;;;23.87;37.06
73453;BME280;61687;56.232;43.854;2022-08-19T08:51:38;102063.88;;;23.91;37.60
73453;BME280;61687;56.232;43.854;2022-08-19T08:54:09;102059.88;;;23.92;36.16
73453;BME280;61687;56.232;43.854;2022-08-19T08:56:39;102073.81;;;23.96;36.79
73453;BME280;61687;56.232;43.854;2022-08-19T08:59:12;102066.59;;;24.02;36.13
73453;BME280;61687;56.232;43.854;2022-08-19T09:01:42;102069.28;;;24.09;35.95
73453;BME280;61687;56.232;43.854;2022-08-19T09:04:10;102070.84;;;24.14;35.61
73453;BME280;61687;56.232;43.854;2022-08-19T09:06:58;102064.41;;;24.17;36.01
73453;BME280;61687;56.232;43.854;2022-08-19T09:09:39;102067.94;;;24.21;35.41
73453;BME280;61687;56.232;43.854;2022-08-19T09:14:57;102061.59;;;24.17;35.13
73453;BME280;61687;56.232;43.854;2022-08-19T09:17:28;102070.38;;;24.19;35.13
73453;BME280;61687;56.232;43.854;2022-08-19T09:20:03;102070.00;;;24.17;34.55
73453;BME280;61687;56.232;43.854;2022-08-19T09:22:36;102065.59;;;24.16;34.45
73453;BME280;61687;56.232;43.854;2022-08-19T09:25:04;102075.22;;;24.15;34.20
73453;BME280;61687;56.232;43.854;2022-08-19T09:27:30;102065.31;;;24.07;33.86
73453;BME280;61687;56.232;43.854;2022-08-19T09:29:57;102063.72;;;24.06;34.12
73453;BME280;61687;56.232;43.854;2022-08-19T09:32:23;102063.31;;;24.07;34.06
73453;BME280;61687;56.232;43.854;2022-08-19T09:34:50;102053.66;;;24.12;34.30
73453;BME280;61687;56.232;43.854;2022-08-19T09:37:20;102050.38;;;24.17;32.69
73453;BME280;61687;56.232;43.854;2022-08-19T09:39:47;102049.91;;;24.22;33.32
73453;BME280;61687;56.232;43.854;2022-08-19T09:42:13;102060.63;;;24.27;32.86
73453;BME280;61687;56.232;43.854;2022-08-19T09:44:40;102053.00;;;24.32;32.81
73453;BME280;61687;56.232;43.854;2022-08-19T09:47:08;102057.41;;;24.33;32.22
73453;BME280;61687;56.232;43.854;2022-08-19T09:49:35;102067.31;;;24.37;32.44
73453;BME280;61687;56.232;43.854;2022-08-19T09:52:01;102059.69;;;24.41;32.70
73453;BME280;61687;56.232;43.854;2022-08-19T09:54:27;102064.06;;;24.42;32.74
73453;BME280;61687;56.232;43.854;2022-08-19T09:56:54;102065.59;;;24.47;33.09
73453;BME280;61687;56.232;43.854;2022-08-19T09:59:21;102066.34;;;24.51;32.17
73453;BME280;61687;56.232;43.854;2022-08-19T10:01:47;102074.31;;;24.53;31.48
73453;BME280;61687;56.232;43.854;2022-08-19T10:04:13;102059.81;;;24.58;31.34
73453;BME280;61687;56.232;43.854;2022-08-19T10:06:39;102072.56;;;24.63;32.13
73453;BME280;61687;56.232;43.854;2022-08-19T10:09:10;102079.59;;;24.75;30.15
73453;BME280;61687;56.232;43.854;2022-08-19T10:11:40;102071.41;;;24.88;29.43
73453;BME280;61687;56.232;43.854;2022-08-19T10:14:07;102065.28;;;24.96;29.23
73453;BME280;61687;56.232;43.854;2022-08-19T10:16:33;102065.47;;;25.09;28.82
73453;BME280;61687;56.232;43.854;2022-08-19T10:19:01;102060.56;;;25.13;28.69
73453;BME280;61687;56.232;43.854;2022-08-19T10:21:31;102056.94;;;25.17;28.90
73453;BME280;61687;56.232;43.854;2022-08-19T10:24:00;102067.34;;;25.16;29.79
73453;BME280;61687;56.232;43.854;2022-08-19T10:26:30;102060.09;;;25.19;29.21
73453;BME280;61687;56.232;43.854;2022-08-19T10:28:57;102068.50;;;25.42;28.30
73453;BME280;61687;56.232;43.854;2022-08-19T10:31:28;102070.94;;;25.64;27.98
73453;BME280;61687;56.232;43.854;2022-08-19T10:33:56;102079.34;;;25.84;27.55
73453;BME280;61687;56.232;43.854;2022-08-19T10:36:28;102080.16;;;25.85;26.03
73453;BME280;61687;56.232;43.854;2022-08-19T10:38:57;102085.34;;;25.86;26.26
73453;BME280;61687;56.232;43.854;2022-08-19T10:41:30;102081.81;;;25.82;26.52
73453;BME280;61687;56.232;43.854;2022-08-19T10:44:03;102086.41;;;25.72;26.53
73453;BME280;61687;56.232;43.854;2022-08-19T10:46:30;102084.63;;;25.62;26.67
73453;BME280;61687;56.232;43.854;2022-08-19T10:48:59;102088.34;;;25.55;27.10
73453;BME280;61687;56.232;43.854;2022-08-19T10:51:25;102078.47;;;25.47;26.77
73453;BME280;61687;56.232;43.854;2022-08-19T10:54:10;102090.47;;;25.48;26.93
73453;BME280;61687;56.232;43.854;2022-08-19T10:56:36;102091.94;;;25.56;27.44
73453;BME280;61687;56.232;43.854;2022-08-19T10:59:24;102090.88;;;25.90;26.18
73453;BME280;61687;56.232;43.854;2022-08-19T11:01:51;102092.63;;;26.61;25.87
73453;BME280;61687;56.232;43.854;2022-08-19T11:04:18;102086.88;;;26.85;25.08
73453;BME280;61687;56.232;43.854;2022-08-19T11:06:46;102091.19;;;27.06;25.15
73453;BME280;61687;56.232;43.854;2022-08-19T11:09:19;102101.84;;;26.98;25.69
73453;BME280;61687;56.232;43.854;2022-08-19T11:11:45;102108.53;;;26.84;25.71
73453;BME280;61687;56.232;43.854;2022-08-19T11:14:16;102096.22;;;26.62;26.10
73453;BME280;61687;56.232;43.854;2022-08-19T11:16:51;102084.22;;;26.41;26.03
73453;BME280;61687;56.232;43.854;2022-08-19T11:19:21;102084.22;;;26.24;26.83
73453;BME280;61687;56.232;43.854;2022-08-19T11:21:49;102089.53;;;26.19;26.92
73453;BME280;61687;56.232;43.854;2022-08-19T11:24:22;102095.28;;;26.32;27.01
73453;BME280;61687;56.232;43.854;2022-08-19T11:26:53;102091.25;;;26.33;26.55
73453;BME280;61687;56.232;43.854;2022-08-19T11:29:23;102089.53;;;26.19;26.40
73453;BME280;61687;56.232;43.854;2022-08-19T11:31:53;102085.34;;;26.07;27.17
73453;BME280;61687;56.232;43.854;2022-08-19T11:34:23;102075.97;;;25.93;27.07
73453;BME280;61687;56.232;43.854;2022-08-19T11:36:51;102091.41;;;25.85;27.89
73453;BME280;61687;56.232;43.854;2022-08-19T11:39:20;102079.81;;;25.83;27.64
73453;BME280;61687;56.232;43.854;2022-08-19T11:41:47;102076.28;;;25.99;27.44
73453;BME280;61687;56.232;43.854;2022-08-19T11:44:13;102089.59;;;26.35;27.49
73453;BME280;61687;56.232;43.854;2022-08-19T11:46:41;102083.81;;;27.59;26.25
73453;BME280;61687;56.232;43.854;2022-08-19T11:49:07;102077.06;;;28.28;25.31
73453;BME280;61687;56.232;43.854;2022-08-19T11:51:35;102074.13;;;28.70;25.72
73453;BME280;61687;56.232;43.854;2022-08-19T11:54:04;102073.88;;;28.78;25.60
73453;BME280;61687;56.232;43.854;2022-08-19T11:56:31;102087.56;;;28.92;24.91
73453;BME280;61687;56.232;43.854;2022-08-19T11:58:57;102080.09;;;28.73;25.74
73453;BME280;61687;56.232;43.854;2022-08-19T12:01:25;102083.13;;;28.52;25.78
73453;BME280;61687;56.232;43.854;2022-08-19T12:03:54;102092.38;;;28.27;26.06
73453;BME280;61687;56.232;43.854;2022-08-19T12:06:31;102079.88;;;27.85;26.53
73453;BME280;61687;56.232;43.854;2022-08-19T12:09:03;102081.63;;;27.50;27.42
73453;BME280;61687;56.232;43.854;2022-08-19T12:11:29;102095.75;;;27.17;26.98
73453;BME280;61687;56.232;43.854;2022-08-19T12:13:55;102098.41;;;26.91;27.90
73453;BME280;61687;56.232;43.854;2022-08-19T12:16:26;102088.47;;;26.86;28.71
73453;BME280;61687;56.232;43.854;2022-08-19T12:18:53;102090.25;;;26.76;28.12
73453;BME280;61687;56.232;43.854;2022-08-19T12:21:22;102089.22;;;26.70;28.84
73453;BME280;61687;56.232;43.854;2022-08-19T12:23:51;102085.78;;;26.62;28.43
73453;BME280;61687;56.232;43.854;2022-08-19T12:26:17;102095.50;;;26.57;29.02
73453;BME280;61687;56.232;43.854;2022-08-19T12:28:44;102098.78;;;26.56;28.63
73453;BME280;61687;56.232;43.854;2022-08-19T12:31:10;102100.25;;;26.61;28.97
73453;BME280;61687;56.232;43.854;2022-08-19T12:33:40;102096.41;;;26.71;29.03
73453;BME280;61687;56.232;43.854;2022-08-19T12:36:10;102102.22;;;26.80;29.46
73453;BME280;61687;56.232;43.854;2022-08-19T12:38:38;102086.69;;;26.92;28.60
73453;BME280;61687;56.232;43.854;2022-08-19T12:41:06;102088.19;;;26.97;29.57
73453;BME280;61687;56.232;43.854;2022-08-19T12:43:33;102088.72;;;27.08;29.08
73453;BME280;61687;56.232;43.854;2022-08-19T12:46:01;102088.88;;;27.34;28.84
73453;BME280;61687;56.232;43.854;2022-08-19T12:48:28;102101.34;;;27.50;28.26
73453;BME280;61687;56.232;43.854;2022-08-19T12:50:54;102090.28;;;27.72;28.45
73453;BME280;61687;56.232;43.854;2022-08-19T12:53:20;102085.38;;;29.09;26.51
73453;BME280;61687;56.232;43.854;2022-08-19T12:55:46;102096.22;;;31.45;24.26
73453;BME280;61687;56.232;43.854;2022-08-19T12:58:12;102082.00;;;33.66;21.89